Аэропорт: Саратов-Центральный. Саратов

ICAO: UWSS

METAR:
2019/03/24 18:00
UWSS 241800Z 03001MPS 0500 R12/0900 SN FZFG VV002 M00/M00 Q1007 R12/690528 NOSIG RMK QBB060 QFE743
METAR:
2016/08/14 06:12
TAF TAF UWSS 140500Z 1406/1418 03003MPS 9999 SCT040CB 
      TEMPO 1406/1418 VRB18MPS 2100 -TSRAGR SQ BKN007 BKN030CB